sensor_id;sensor_type;location;lat;lon;timestamp;P1;durP1;ratioP1;P2;durP2;ratioP2
37157;SDS011;23050;51.776;22.638;2022-10-16T11:22:50;6.43;;;2.85;;
37157;SDS011;23050;51.776;22.638;2022-10-16T11:25:28;2.08;;;1.35;;
37157;SDS011;23050;51.776;22.638;2022-10-16T11:41:31;7.25;;;3.72;;
37157;SDS011;23050;51.776;22.638;2022-10-16T11:53:01;2.55;;;1.60;;
37157;SDS011;23050;51.776;22.638;2022-10-16T12:03:22;3.58;;;2.53;;
37157;SDS011;23050;51.776;22.638;2022-10-16T12:05:52;8.60;;;2.97;;
37157;SDS011;23050;51.776;22.638;2022-10-16T12:08:26;5.15;;;2.83;;
37157;SDS011;23050;51.776;22.638;2022-10-16T12:10:53;1.13;;;0.93;;
37157;SDS011;23050;51.776;22.638;2022-10-16T12:13:33;2.50;;;2.28;;
37157;SDS011;23050;51.776;22.638;2022-10-16T12:16:19;1.58;;;1.48;;
37157;SDS011;23050;51.776;22.638;2022-10-16T12:18:47;7.30;;;2.50;;
37157;SDS011;23050;51.776;22.638;2022-10-16T12:21:14;5.18;;;3.45;;
37157;SDS011;23050;51.776;22.638;2022-10-16T12:23:51;7.78;;;4.75;;
37157;SDS011;23050;51.776;22.638;2022-10-16T12:26:27;13.60;;;5.50;;
37157;SDS011;23050;51.776;22.638;2022-10-16T12:29:12;2.83;;;2.10;;
37157;SDS011;23050;51.776;22.638;2022-10-16T12:31:56;1.85;;;1.23;;
37157;SDS011;23050;51.776;22.638;2022-10-16T12:34:23;9.00;;;1.88;;
37157;SDS011;23050;51.776;22.638;2022-10-16T12:36:54;1.70;;;1.60;;
37157;SDS011;23050;51.776;22.638;2022-10-16T12:39:21;0.80;;;0.57;;
37157;SDS011;23050;51.776;22.638;2022-10-16T12:41:53;2.47;;;1.90;;
37157;SDS011;23050;51.776;22.638;2022-10-16T12:44:26;2.10;;;1.63;;
37157;SDS011;23050;51.776;22.638;2022-10-16T12:46:58;0.82;;;0.82;;
37157;SDS011;23050;51.776;22.638;2022-10-16T12:49:36;0.95;;;0.95;;
37157;SDS011;23050;51.776;22.638;2022-10-16T12:52:03;4.60;;;4.07;;
37157;SDS011;23050;51.776;22.638;2022-10-16T13:05:26;1.55;;;1.45;;
37157;SDS011;23050;51.776;22.638;2022-10-16T13:08:00;2.42;;;1.65;;
37157;SDS011;23050;51.776;22.638;2022-10-16T13:11:48;3.67;;;2.63;;
37157;SDS011;23050;51.776;22.638;2022-10-16T13:14:07;1.40;;;1.30;;
37157;SDS011;23050;51.776;22.638;2022-10-16T13:22:22;4.68;;;2.35;;
37157;SDS011;23050;51.776;22.638;2022-10-16T13:25:14;2.83;;;2.07;;
37157;SDS011;23050;51.776;22.638;2022-10-16T13:27:56;9.00;;;5.90;;
37157;SDS011;23050;51.776;22.638;2022-10-16T13:30:29;6.90;;;4.28;;
37157;SDS011;23050;51.776;22.638;2022-10-16T13:33:04;18.63;;;6.03;;
37157;SDS011;23050;51.776;22.638;2022-10-16T13:35:46;13.55;;;8.68;;
37157;SDS011;23050;51.776;22.638;2022-10-16T13:38:23;22.80;;;10.18;;
37157;SDS011;23050;51.776;22.638;2022-10-16T13:41:02;12.65;;;7.00;;
37157;SDS011;23050;51.776;22.638;2022-10-16T13:46:05;17.90;;;11.15;;
37157;SDS011;23050;51.776;22.638;2022-10-16T13:48:38;35.28;;;16.55;;
37157;SDS011;23050;51.776;22.638;2022-10-16T13:51:11;25.25;;;8.68;;
37157;SDS011;23050;51.776;22.638;2022-10-16T13:53:41;15.63;;;5.82;;
37157;SDS011;23050;51.776;22.638;2022-10-16T13:56:11;4.63;;;2.90;;
37157;SDS011;23050;51.776;22.638;2022-10-16T13:58:41;12.30;;;6.60;;
37157;SDS011;23050;51.776;22.638;2022-10-16T14:01:18;8.85;;;5.35;;
37157;SDS011;23050;51.776;22.638;2022-10-16T14:03:44;3.88;;;2.00;;
37157;SDS011;23050;51.776;22.638;2022-10-16T14:06:12;27.30;;;7.03;;
37157;SDS011;23050;51.776;22.638;2022-10-16T14:08:45;4.28;;;3.58;;
37157;SDS011;23050;51.776;22.638;2022-10-16T14:11:19;14.93;;;6.30;;
37157;SDS011;23050;51.776;22.638;2022-10-16T14:13:48;3.75;;;3.33;;
37157;SDS011;23050;51.776;22.638;2022-10-16T14:16:18;4.93;;;4.53;;
37157;SDS011;23050;51.776;22.638;2022-10-16T14:18:46;17.10;;;7.50;;
37157;SDS011;23050;51.776;22.638;2022-10-16T14:21:21;15.38;;;7.90;;
37157;SDS011;23050;51.776;22.638;2022-10-16T14:23:46;13.68;;;5.82;;
37157;SDS011;23050;51.776;22.638;2022-10-16T14:26:13;3.28;;;2.42;;
37157;SDS011;23050;51.776;22.638;2022-10-16T14:28:41;30.42;;;6.40;;
37157;SDS011;23050;51.776;22.638;2022-10-16T14:31:25;18.00;;;8.93;;
37157;SDS011;23050;51.776;22.638;2022-10-16T14:33:53;21.88;;;12.70;;
37157;SDS011;23050;51.776;22.638;2022-10-16T14:36:19;9.60;;;5.35;;
37157;SDS011;23050;51.776;22.638;2022-10-16T14:41:30;38.30;;;21.70;;
37157;SDS011;23050;51.776;22.638;2022-10-16T14:44:00;17.73;;;12.93;;
37157;SDS011;23050;51.776;22.638;2022-10-16T14:46:30;23.73;;;11.55;;
37157;SDS011;23050;51.776;22.638;2022-10-16T14:49:00;5.65;;;4.18;;
37157;SDS011;23050;51.776;22.638;2022-10-16T14:51:33;4.80;;;3.78;;
37157;SDS011;23050;51.776;22.638;2022-10-16T14:53:59;8.60;;;3.95;;
37157;SDS011;23050;51.776;22.638;2022-10-16T14:56:25;12.38;;;6.40;;
37157;SDS011;23050;51.776;22.638;2022-10-16T14:58:57;5.18;;;4.63;;
37157;SDS011;23050;51.776;22.638;2022-10-16T15:01:23;1.55;;;1.45;;
37157;SDS011;23050;51.776;22.638;2022-10-16T15:03:49;6.93;;;3.78;;
37157;SDS011;23050;51.776;22.638;2022-10-16T15:06:17;2.28;;;2.08;;
37157;SDS011;23050;51.776;22.638;2022-10-16T15:08:43;9.23;;;1.33;;
37157;SDS011;23050;51.776;22.638;2022-10-16T15:11:15;3.10;;;1.48;;
37157;SDS011;23050;51.776;22.638;2022-10-16T15:13:43;1.40;;;1.30;;
37157;SDS011;23050;51.776;22.638;2022-10-16T15:16:12;1.50;;;1.40;;
37157;SDS011;23050;51.776;22.638;2022-10-16T15:18:40;2.53;;;2.25;;
37157;SDS011;23050;51.776;22.638;2022-10-16T15:21:05;2.92;;;2.58;;
37157;SDS011;23050;51.776;22.638;2022-10-16T15:23:32;3.53;;;2.83;;
37157;SDS011;23050;51.776;22.638;2022-10-16T15:25:57;2.33;;;1.25;;
37157;SDS011;23050;51.776;22.638;2022-10-16T15:28:24;5.15;;;1.65;;
37157;SDS011;23050;51.776;22.638;2022-10-16T15:30:51;1.73;;;1.48;;
37157;SDS011;23050;51.776;22.638;2022-10-16T15:33:19;1.77;;;1.05;;
37157;SDS011;23050;51.776;22.638;2022-10-16T15:35:51;2.88;;;2.65;;
37157;SDS011;23050;51.776;22.638;2022-10-16T15:38:19;22.02;;;12.45;;
37157;SDS011;23050;51.776;22.638;2022-10-16T15:40:46;38.45;;;17.33;;
37157;SDS011;23050;51.776;22.638;2022-10-16T15:43:13;13.50;;;9.23;;
37157;SDS011;23050;51.776;22.638;2022-10-16T15:45:39;18.67;;;5.40;;
37157;SDS011;23050;51.776;22.638;2022-10-16T15:48:05;13.27;;;6.35;;
37157;SDS011;23050;51.776;22.638;2022-10-16T15:50:31;4.35;;;3.45;;
37157;SDS011;23050;51.776;22.638;2022-10-16T15:52:57;1.73;;;1.63;;
37157;SDS011;23050;51.776;22.638;2022-10-16T15:55:23;3.85;;;2.95;;
37157;SDS011;23050;51.776;22.638;2022-10-16T15:57:50;9.02;;;2.47;;
37157;SDS011;23050;51.776;22.638;2022-10-16T16:00:17;5.35;;;4.05;;
37157;SDS011;23050;51.776;22.638;2022-10-16T16:02:49;11.32;;;3.25;;
37157;SDS011;23050;51.776;22.638;2022-10-16T16:05:17;2.10;;;1.75;;
37157;SDS011;23050;51.776;22.638;2022-10-16T16:07:43;4.55;;;3.95;;
37157;SDS011;23050;51.776;22.638;2022-10-16T16:10:10;3.22;;;2.60;;
37157;SDS011;23050;51.776;22.638;2022-10-16T16:12:36;2.25;;;1.85;;
37157;SDS011;23050;51.776;22.638;2022-10-16T16:15:06;3.40;;;2.85;;
37157;SDS011;23050;51.776;22.638;2022-10-16T16:17:34;2.38;;;2.00;;
37157;SDS011;23050;51.776;22.638;2022-10-16T16:20:01;1.95;;;1.85;;
37157;SDS011;23050;51.776;22.638;2022-10-16T16:22:27;4.47;;;2.97;;
37157;SDS011;23050;51.776;22.638;2022-10-16T16:24:53;3.85;;;3.55;;
37157;SDS011;23050;51.776;22.638;2022-10-16T16:27:19;5.03;;;3.33;;
37157;SDS011;23050;51.776;22.638;2022-10-16T16:29:45;2.75;;;2.15;;
37157;SDS011;23050;51.776;22.638;2022-10-16T16:32:11;21.10;;;8.20;;
37157;SDS011;23050;51.776;22.638;2022-10-16T16:34:36;16.10;;;9.45;;
37157;SDS011;23050;51.776;22.638;2022-10-16T16:37:02;22.08;;;4.75;;
37157;SDS011;23050;51.776;22.638;2022-10-16T16:39:27;19.50;;;4.43;;
37157;SDS011;23050;51.776;22.638;2022-10-16T16:41:55;4.60;;;3.38;;
37157;SDS011;23050;51.776;22.638;2022-10-16T16:44:21;3.72;;;3.10;;
37157;SDS011;23050;51.776;22.638;2022-10-16T16:46:46;5.95;;;4.32;;
37157;SDS011;23050;51.776;22.638;2022-10-16T16:49:13;3.60;;;3.13;;
37157;SDS011;23050;51.776;22.638;2022-10-16T16:51:39;4.28;;;3.05;;
37157;SDS011;23050;51.776;22.638;2022-10-16T16:54:06;5.88;;;4.13;;
37157;SDS011;23050;51.776;22.638;2022-10-16T16:56:32;2.40;;;2.20;;
37157;SDS011;23050;51.776;22.638;2022-10-16T16:58:58;3.10;;;2.80;;
37157;SDS011;23050;51.776;22.638;2022-10-16T17:01:25;4.80;;;4.10;;
37157;SDS011;23050;51.776;22.638;2022-10-16T17:03:54;8.52;;;5.25;;
37157;SDS011;23050;51.776;22.638;2022-10-16T17:06:22;6.68;;;3.50;;
37157;SDS011;23050;51.776;22.638;2022-10-16T17:08:50;8.18;;;4.85;;
37157;SDS011;23050;51.776;22.638;2022-10-16T17:11:20;2.17;;;2.00;;
37157;SDS011;23050;51.776;22.638;2022-10-16T17:13:48;4.13;;;2.97;;
37157;SDS011;23050;51.776;22.638;2022-10-16T17:16:15;1.73;;;1.63;;
37157;SDS011;23050;51.776;22.638;2022-10-16T17:18:41;1.75;;;1.65;;
37157;SDS011;23050;51.776;22.638;2022-10-16T17:21:07;1.75;;;1.65;;
37157;SDS011;23050;51.776;22.638;2022-10-16T17:23:34;1.83;;;1.70;;
37157;SDS011;23050;51.776;22.638;2022-10-16T17:28:31;6.53;;;4.32;;
37157;SDS011;23050;51.776;22.638;2022-10-16T17:31:08;7.93;;;2.22;;
37157;SDS011;23050;51.776;22.638;2022-10-16T17:33:38;16.10;;;10.98;;
37157;SDS011;23050;51.776;22.638;2022-10-16T17:36:05;16.70;;;6.28;;
37157;SDS011;23050;51.776;22.638;2022-10-16T17:38:32;19.70;;;10.40;;
37157;SDS011;23050;51.776;22.638;2022-10-16T17:40:58;33.03;;;13.25;;
37157;SDS011;23050;51.776;22.638;2022-10-16T17:43:33;9.07;;;6.07;;
37157;SDS011;23050;51.776;22.638;2022-10-16T17:46:01;44.28;;;17.48;;
37157;SDS011;23050;51.776;22.638;2022-10-16T17:48:27;21.52;;;13.20;;
37157;SDS011;23050;51.776;22.638;2022-10-16T17:50:53;24.70;;;11.73;;
37157;SDS011;23050;51.776;22.638;2022-10-16T17:53:18;6.45;;;4.15;;
37157;SDS011;23050;51.776;22.638;2022-10-16T17:55:44;32.88;;;16.95;;
37157;SDS011;23050;51.776;22.638;2022-10-16T17:58:09;18.65;;;9.10;;
37157;SDS011;23050;51.776;22.638;2022-10-16T18:00:36;14.30;;;10.82;;
37157;SDS011;23050;51.776;22.638;2022-10-16T18:03:02;14.80;;;6.75;;
37157;SDS011;23050;51.776;22.638;2022-10-16T18:05:28;16.65;;;8.25;;
37157;SDS011;23050;51.776;22.638;2022-10-16T18:07:54;11.93;;;5.57;;
37157;SDS011;23050;51.776;22.638;2022-10-16T18:10:20;7.80;;;3.75;;
37157;SDS011;23050;51.776;22.638;2022-10-16T18:12:46;12.13;;;5.95;;
37157;SDS011;23050;51.776;22.638;2022-10-16T18:15:11;14.73;;;8.32;;
37157;SDS011;23050;51.776;22.638;2022-10-16T18:17:37;25.13;;;15.73;;
37157;SDS011;23050;51.776;22.638;2022-10-16T18:20:04;8.50;;;7.70;;
37157;SDS011;23050;51.776;22.638;2022-10-16T18:22:32;12.35;;;7.95;;
37157;SDS011;23050;51.776;22.638;2022-10-16T18:25:00;4.07;;;2.65;;
37157;SDS011;23050;51.776;22.638;2022-10-16T18:27:29;2.97;;;2.72;;
37157;SDS011;23050;51.776;22.638;2022-10-16T18:29:55;7.65;;;4.22;;
37157;SDS011;23050;51.776;22.638;2022-10-16T18:32:22;7.53;;;5.65;;
37157;SDS011;23050;51.776;22.638;2022-10-16T18:34:48;2.90;;;2.65;;
37157;SDS011;23050;51.776;22.638;2022-10-16T18:37:14;7.20;;;4.80;;
37157;SDS011;23050;51.776;22.638;2022-10-16T18:39:40;4.68;;;3.22;;
37157;SDS011;23050;51.776;22.638;2022-10-16T18:44:36;3.40;;;3.10;;
37157;SDS011;23050;51.776;22.638;2022-10-16T18:47:02;5.93;;;2.83;;
37157;SDS011;23050;51.776;22.638;2022-10-16T18:49:27;3.90;;;3.20;;
37157;SDS011;23050;51.776;22.638;2022-10-16T18:51:54;9.52;;;4.72;;
37157;SDS011;23050;51.776;22.638;2022-10-16T18:54:25;8.13;;;4.82;;
37157;SDS011;23050;51.776;22.638;2022-10-16T18:56:52;6.57;;;4.22;;
37157;SDS011;23050;51.776;22.638;2022-10-16T18:59:18;3.97;;;2.13;;
37157;SDS011;23050;51.776;22.638;2022-10-16T19:01:44;6.88;;;3.75;;
37157;SDS011;23050;51.776;22.638;2022-10-16T19:04:12;7.50;;;4.15;;
37157;SDS011;23050;51.776;22.638;2022-10-16T19:06:41;4.10;;;2.40;;
37157;SDS011;23050;51.776;22.638;2022-10-16T19:09:08;1.95;;;1.83;;
37157;SDS011;23050;51.776;22.638;2022-10-16T19:11:35;2.55;;;2.33;;
37157;SDS011;23050;51.776;22.638;2022-10-16T19:14:01;2.33;;;2.13;;
37157;SDS011;23050;51.776;22.638;2022-10-16T19:16:27;1.52;;;0.98;;
37157;SDS011;23050;51.776;22.638;2022-10-16T19:18:56;2.92;;;2.55;;
37157;SDS011;23050;51.776;22.638;2022-10-16T19:21:26;2.47;;;2.28;;
37157;SDS011;23050;51.776;22.638;2022-10-16T19:23:55;6.80;;;3.47;;
37157;SDS011;23050;51.776;22.638;2022-10-16T19:26:23;2.80;;;2.00;;
37157;SDS011;23050;51.776;22.638;2022-10-16T19:28:49;2.25;;;1.85;;
37157;SDS011;23050;51.776;22.638;2022-10-16T19:31:17;3.67;;;1.85;;
37157;SDS011;23050;51.776;22.638;2022-10-16T19:33:45;1.30;;;1.08;;
37157;SDS011;23050;51.776;22.638;2022-10-16T19:36:19;3.60;;;2.28;;
37157;SDS011;23050;51.776;22.638;2022-10-16T19:38:53;3.10;;;1.90;;
37157;SDS011;23050;51.776;22.638;2022-10-16T19:41:21;1.92;;;1.60;;
37157;SDS011;23050;51.776;22.638;2022-10-16T19:43:49;0.70;;;0.70;;
37157;SDS011;23050;51.776;22.638;2022-10-16T19:46:16;0.93;;;0.93;;
37157;SDS011;23050;51.776;22.638;2022-10-16T19:48:53;3.03;;;1.98;;
37157;SDS011;23050;51.776;22.638;2022-10-16T19:51:22;2.22;;;1.45;;
37157;SDS011;23050;51.776;22.638;2022-10-16T19:53:51;2.88;;;1.98;;
37157;SDS011;23050;51.776;22.638;2022-10-16T19:56:20;0.77;;;0.77;;
37157;SDS011;23050;51.776;22.638;2022-10-16T19:58:47;2.70;;;2.42;;
37157;SDS011;23050;51.776;22.638;2022-10-16T20:01:14;4.40;;;1.50;;
37157;SDS011;23050;51.776;22.638;2022-10-16T20:03:44;1.15;;;1.05;;
37157;SDS011;23050;51.776;22.638;2022-10-16T20:06:12;2.60;;;1.70;;
37157;SDS011;23050;51.776;22.638;2022-10-16T20:08:41;1.63;;;1.52;;
37157;SDS011;23050;51.776;22.638;2022-10-16T20:11:19;2.67;;;2.22;;
37157;SDS011;23050;51.776;22.638;2022-10-16T20:13:48;2.42;;;1.80;;
37157;SDS011;23050;51.776;22.638;2022-10-16T20:16:17;2.08;;;1.55;;
37157;SDS011;23050;51.776;22.638;2022-10-16T20:18:45;4.82;;;1.77;;
37157;SDS011;23050;51.776;22.638;2022-10-16T20:21:13;2.05;;;1.77;;
37157;SDS011;23050;51.776;22.638;2022-10-16T20:23:41;4.13;;;1.13;;
37157;SDS011;23050;51.776;22.638;2022-10-16T20:26:07;4.35;;;1.63;;
37157;SDS011;23050;51.776;22.638;2022-10-16T20:28:37;1.23;;;0.98;;
37157;SDS011;23050;51.776;22.638;2022-10-16T20:31:08;6.40;;;2.13;;
37157;SDS011;23050;51.776;22.638;2022-10-16T20:33:38;0.57;;;0.57;;
37157;SDS011;23050;51.776;22.638;2022-10-16T20:36:03;1.80;;;1.70;;
37157;SDS011;23050;51.776;22.638;2022-10-16T20:38:35;1.95;;;1.55;;
37157;SDS011;23050;51.776;22.638;2022-10-16T20:41:02;0.85;;;0.80;;
37157;SDS011;23050;51.776;22.638;2022-10-16T20:43:29;2.92;;;1.45;;
37157;SDS011;23050;51.776;22.638;2022-10-16T20:45:58;1.27;;;1.17;;
37157;SDS011;23050;51.776;22.638;2022-10-16T20:48:26;1.40;;;1.30;;
37157;SDS011;23050;51.776;22.638;2022-10-16T20:50:53;15.55;;;1.95;;
